createdAt,value
2019-02-19T00:02:27.833Z,101075.14
2019-02-19T00:04:59.393Z,101082.73
2019-02-19T00:07:30.340Z,101045.75
2019-02-19T00:10:01.571Z,101081.24
2019-02-19T00:12:32.671Z,101078.27
2019-02-19T00:15:08.190Z,101076.38
2019-02-19T00:17:37.503Z,101067.88
2019-02-19T00:20:08.361Z,101061.61
2019-02-19T00:22:43.415Z,101057.86
2019-02-19T00:25:14.879Z,101061.41
2019-02-19T00:27:46.281Z,101061.66
2019-02-19T00:30:17.656Z,101040.52
2019-02-19T00:32:48.660Z,101063.46
2019-02-19T00:35:20.388Z,101037.39
2019-02-19T00:37:51.517Z,101054.84
2019-02-19T00:40:22.910Z,101054.84
2019-02-19T00:42:54.192Z,101046.61
2019-02-19T00:45:25.474Z,101044.60
2019-02-19T00:47:56.553Z,101051.69
2019-02-19T00:50:27.797Z,101046.05
2019-02-19T00:52:58.898Z,101039.27
2019-02-19T00:55:29.695Z,101037.31
2019-02-19T00:58:00.787Z,101007.75
2019-02-19T01:00:32.053Z,100997.17
2019-02-19T01:03:03.246Z,100997.17
2019-02-19T01:05:34.016Z,101033.77
2019-02-19T01:08:05.878Z,101030.09
2019-02-19T01:10:37.112Z,101023.41
2019-02-19T01:13:08.401Z,101024.47
2019-02-19T01:15:39.707Z,101019.81
2019-02-19T01:18:11.381Z,101008.36
2019-02-19T01:20:42.544Z,100997.52
2019-02-19T01:23:13.825Z,101010.83
2019-02-19T01:25:45.507Z,101010.83
2019-02-19T01:28:16.917Z,101002.21
2019-02-19T01:30:48.277Z,100997.83
2019-02-19T01:33:19.352Z,100988.23
2019-02-19T01:35:50.418Z,100975.57
2019-02-19T01:38:21.187Z,100985.28
2019-02-19T01:40:51.984Z,100978.76
2019-02-19T01:43:23.113Z,100978.76
2019-02-19T01:45:54.534Z,100978.59
2019-02-19T01:48:25.830Z,100976.11
2019-02-19T01:50:57.190Z,100976.50
2019-02-19T01:53:28.231Z,100970.19
2019-02-19T01:55:58.917Z,100947.25
2019-02-19T01:58:30.378Z,100969.29
2019-02-19T02:01:01.544Z,100941.16
2019-02-19T02:03:32.693Z,100941.16
2019-02-19T02:06:03.426Z,100953.34
2019-02-19T02:08:35.318Z,100953.34
2019-02-19T02:11:06.191Z,100950.03
2019-02-19T02:13:37.070Z,100945.81
2019-02-19T02:16:09.337Z,100942.39
2019-02-19T02:18:40.531Z,100938.17
2019-02-19T02:21:11.688Z,100937.33
2019-02-19T02:23:43.048Z,100939.75
2019-02-19T02:26:13.940Z,100938.69
2019-02-19T02:28:45.298Z,100933.27
2019-02-19T02:31:16.340Z,100919.61
2019-02-19T02:33:47.691Z,100933.91
2019-02-19T02:36:18.644Z,100933.91
2019-02-19T02:38:49.917Z,100935.78
2019-02-19T02:41:20.813Z,100935.56
2019-02-19T02:43:51.837Z,100931.73
2019-02-19T02:46:23.110Z,100926.62
2019-02-19T02:48:54.178Z,100923.30
2019-02-19T02:51:25.085Z,100919.08
2019-02-19T02:53:56.063Z,100920.95
2019-02-19T02:56:27.237Z,100920.95
2019-02-19T02:58:58.344Z,100920.95
2019-02-19T03:01:30.022Z,100920.06
2019-02-19T03:04:01.287Z,100930.58
2019-02-19T03:06:34.752Z,100928.87
2019-02-19T03:09:07.391Z,100931.85
2019-02-19T03:11:38.703Z,100931.55
2019-02-19T03:14:09.685Z,100927.38
2019-02-19T03:16:41.213Z,100926.66
2019-02-19T03:19:12.651Z,100927.59
2019-02-19T03:21:43.664Z,100920.73
2019-02-19T03:24:14.670Z,100898.28
2019-02-19T03:26:45.928Z,100898.28
2019-02-19T03:29:17.549Z,100918.73
2019-02-19T03:31:49.172Z,100918.73
2019-02-19T03:34:19.683Z,100906.30
2019-02-19T03:36:51.142Z,100902.72
2019-02-19T03:39:22.491Z,100900.62
2019-02-19T03:41:53.397Z,100906.45
2019-02-19T03:44:24.831Z,100901.59
2019-02-19T03:46:56.357Z,100898.88
2019-02-19T03:49:28.362Z,100900.45
2019-02-19T03:51:59.510Z,100894.36
2019-02-19T03:54:30.517Z,100893.30
2019-02-19T03:57:01.530Z,100893.30
2019-02-19T03:59:32.415Z,100894.67
2019-02-19T04:02:03.465Z,100889.77
2019-02-19T04:04:34.804Z,100895.99
2019-02-19T04:07:06.049Z,100888.19
2019-02-19T04:09:37.744Z,100890.02
2019-02-19T04:12:08.920Z,100888.11
2019-02-19T04:14:40.265Z,100885.29
2019-02-19T04:17:11.471Z,100880.74
2019-02-19T04:19:42.428Z,100875.63
2019-02-19T04:22:13.907Z,100875.63
2019-02-19T04:24:44.693Z,100880.23
2019-02-19T04:27:15.738Z,100877.16
2019-02-19T04:29:46.752Z,100877.63
2019-02-19T04:32:17.689Z,100869.70
2019-02-19T04:34:48.909Z,100868.43
2019-02-19T04:37:19.755Z,100868.27
2019-02-19T04:39:51.200Z,100866.17
2019-02-19T04:42:22.560Z,100866.05
2019-02-19T04:44:53.536Z,100858.59
2019-02-19T04:47:24.797Z,100859.11
2019-02-19T04:49:55.947Z,100857.53
2019-02-19T04:52:26.651Z,100858.08
2019-02-19T04:54:57.462Z,100855.66
2019-02-19T04:57:29.202Z,100852.20
2019-02-19T05:00:00.355Z,100829.08
2019-02-19T05:02:30.871Z,100849.81
2019-02-19T05:05:02.025Z,100845.81
2019-02-19T05:07:34.545Z,100847.09
2019-02-19T05:10:08.987Z,100839.51
2019-02-19T05:12:40.037Z,100839.51
2019-02-19T05:15:11.963Z,100833.29
2019-02-19T05:17:42.687Z,100837.34
2019-02-19T05:20:14.233Z,100833.80
2019-02-19T05:22:45.355Z,100834.53
2019-02-19T05:25:16.699Z,100833.89
2019-02-19T05:27:48.197Z,100838.45
2019-02-19T05:30:19.369Z,100842.66
2019-02-19T05:32:50.096Z,100831.92
2019-02-19T05:35:22.064Z,100831.92
2019-02-19T05:37:53.049Z,100832.77
2019-02-19T05:40:23.889Z,100835.59
2019-02-19T05:42:55.051Z,100831.50
2019-02-19T05:45:26.323Z,100834.78
2019-02-19T05:47:57.547Z,100834.78
2019-02-19T05:50:28.783Z,100838.70
2019-02-19T05:52:59.872Z,100837.33
2019-02-19T05:55:30.912Z,100844.67
2019-02-19T05:58:02.014Z,100839.34
2019-02-19T06:00:32.846Z,100839.34
2019-02-19T06:03:03.957Z,100844.83
2019-02-19T06:05:34.711Z,100840.32
2019-02-19T06:08:05.794Z,100842.80
2019-02-19T06:10:36.963Z,100841.43
2019-02-19T06:13:08.006Z,100842.83
2019-02-19T06:15:38.953Z,100844.87
2019-02-19T06:18:10.357Z,100840.78
2019-02-19T06:20:41.939Z,100846.40
2019-02-19T06:23:13.159Z,100843.86
2019-02-19T06:25:43.979Z,100848.88
2019-02-19T06:28:15.642Z,100846.11
2019-02-19T06:30:46.189Z,100844.94
2019-02-19T06:33:17.476Z,100846.31
2019-02-19T06:35:48.916Z,100853.70
2019-02-19T06:38:19.680Z,100853.70
2019-02-19T06:40:51.001Z,100855.95
2019-02-19T06:43:21.702Z,100836.44
2019-02-19T06:45:52.374Z,100843.61
2019-02-19T06:48:23.351Z,100843.61
2019-02-19T06:50:55.244Z,100808.80
2019-02-19T06:53:26.063Z,100835.37
2019-02-19T06:55:56.837Z,100835.37
2019-02-19T06:58:28.036Z,100840.07
2019-02-19T07:00:59.205Z,100833.58
2019-02-19T07:03:33.090Z,100848.45
2019-02-19T07:06:08.335Z,100841.40
2019-02-19T07:08:40.909Z,100842.53
2019-02-19T07:11:12.369Z,100824.90
2019-02-19T07:13:43.024Z,100835.77
2019-02-19T07:16:13.791Z,100839.05
2019-02-19T07:18:44.560Z,100838.45
2019-02-19T07:21:15.550Z,100831.33
2019-02-19T07:23:46.353Z,100830.28
2019-02-19T07:26:16.967Z,100834.33
2019-02-19T07:28:49.281Z,100832.42
2019-02-19T07:31:20.516Z,100827.52
2019-02-19T07:33:52.964Z,100828.89
2019-02-19T07:36:23.969Z,100827.19
2019-02-19T07:38:55.315Z,100820.20
2019-02-19T07:41:26.486Z,100827.61
2019-02-19T07:43:58.322Z,100831.89
2019-02-19T07:46:29.884Z,100824.28
2019-02-19T07:49:01.098Z,100825.80
2019-02-19T07:51:32.032Z,100822.81
2019-02-19T07:54:03.070Z,100818.66
2019-02-19T07:56:34.136Z,100819.88
2019-02-19T07:59:05.130Z,100818.86
2019-02-19T08:01:36.505Z,100810.67
2019-02-19T08:04:07.455Z,100812.87
2019-02-19T08:06:38.431Z,100811.92
2019-02-19T08:09:11.741Z,100815.70
2019-02-19T08:11:42.807Z,100808.09
2019-02-19T08:14:13.630Z,100815.69
2019-02-19T08:16:44.571Z,100813.33
2019-02-19T08:19:16.160Z,100811.66
2019-02-19T08:21:47.564Z,100814.39
2019-02-19T08:24:19.096Z,100814.52
2019-02-19T08:26:50.114Z,100817.41
2019-02-19T08:29:21.203Z,100811.07
2019-02-19T08:31:52.380Z,100812.37
2019-02-19T08:34:23.966Z,100811.84
2019-02-19T08:36:54.980Z,100807.59
2019-02-19T08:39:25.848Z,100803.91
2019-02-19T08:41:56.798Z,100805.16
2019-02-19T08:44:27.512Z,100804.58
2019-02-19T08:46:58.440Z,100795.98
2019-02-19T08:49:29.478Z,100796.77
2019-02-19T08:52:00.329Z,100795.94
2019-02-19T08:54:31.524Z,100794.14
2019-02-19T08:57:02.360Z,100797.27
2019-02-19T08:59:33.412Z,100802.06
2019-02-19T09:02:04.287Z,100806.81
2019-02-19T09:04:35.445Z,100798.60
2019-02-19T09:07:06.875Z,100792.98
2019-02-19T09:09:39.175Z,100803.11
2019-02-19T09:12:11.569Z,100795.00
2019-02-19T09:14:42.720Z,100799.26
2019-02-19T09:17:14.497Z,100791.59
2019-02-19T09:19:47.200Z,100788.24
2019-02-19T09:22:19.260Z,100792.05
2019-02-19T09:24:50.220Z,100792.81
2019-02-19T09:27:21.879Z,100793.66
2019-02-19T09:29:52.859Z,100802.28
2019-02-19T09:32:24.681Z,100802.39
2019-02-19T09:34:56.075Z,100808.86
2019-02-19T09:37:28.365Z,100805.94
2019-02-19T09:39:59.402Z,100806.28
2019-02-19T09:42:30.942Z,100813.13
2019-02-19T09:45:02.531Z,100810.00
2019-02-19T09:47:33.937Z,100814.45
2019-02-19T09:50:07.352Z,100814.08
2019-02-19T09:52:38.968Z,100813.03
2019-02-19T09:55:10.055Z,100810.88
2019-02-19T09:57:41.512Z,100813.41
2019-02-19T10:00:14.160Z,100819.16
2019-02-19T10:02:45.120Z,100811.95
2019-02-19T10:05:16.242Z,100803.84
2019-02-19T10:07:46.818Z,100804.91
2019-02-19T10:10:21.350Z,100806.95
2019-02-19T10:12:52.566Z,100807.50
2019-02-19T10:15:23.949Z,100805.08
2019-02-19T10:17:55.280Z,100803.47
2019-02-19T10:20:26.712Z,100804.92
2019-02-19T10:22:57.772Z,100805.59
2019-02-19T10:25:28.516Z,100802.35
2019-02-19T10:27:59.851Z,100798.66
2019-02-19T10:30:30.708Z,100792.97
2019-02-19T10:33:01.794Z,100791.54
2019-02-19T10:35:33.020Z,100793.48
2019-02-19T10:38:03.913Z,100793.79
2019-02-19T10:40:34.909Z,100797.05
2019-02-19T10:43:05.885Z,100796.18
2019-02-19T10:45:36.658Z,100800.70
2019-02-19T10:48:07.310Z,100786.06
2019-02-19T10:50:38.178Z,100787.36
2019-02-19T10:53:09.347Z,100784.84
2019-02-19T10:55:41.275Z,100789.94
2019-02-19T10:58:12.234Z,100782.89
2019-02-19T11:00:43.257Z,100778.95
2019-02-19T11:03:14.366Z,100775.52
2019-02-19T11:05:45.638Z,100767.11
2019-02-19T11:08:16.528Z,100766.71
2019-02-19T11:10:50.804Z,100761.42
2019-02-19T11:13:20.656Z,100757.94
2019-02-19T11:15:51.684Z,100757.86
2019-02-19T11:18:28.327Z,100755.53
2019-02-19T11:20:56.018Z,100742.58
2019-02-19T11:23:26.891Z,100743.98
2019-02-19T11:25:58.139Z,100749.05
2019-02-19T11:28:30.062Z,100741.78
2019-02-19T11:31:01.207Z,100744.38
2019-02-19T11:33:32.342Z,100747.82
2019-02-19T11:36:03.740Z,100752.89
2019-02-19T11:38:35.310Z,100758.47
2019-02-19T11:41:06.311Z,100757.19
2019-02-19T11:43:37.743Z,100756.30
2019-02-19T11:46:09.351Z,100745.83
2019-02-19T11:48:40.715Z,100755.09
2019-02-19T11:51:12.216Z,100748.66
2019-02-19T11:53:43.837Z,100752.83
2019-02-19T11:56:16.901Z,100746.56
2019-02-19T11:58:47.953Z,100750.02
2019-02-19T12:01:19.605Z,100736.64
2019-02-19T12:03:50.814Z,100746.67
2019-02-19T12:06:22.195Z,100740.33
2019-02-19T12:08:53.315Z,100738.60
2019-02-19T12:11:24.815Z,100739.98
2019-02-19T12:13:56.310Z,100741.63
2019-02-19T12:16:27.731Z,100739.29
2019-02-19T12:18:58.664Z,100741.50
2019-02-19T12:21:30.801Z,100734.03
2019-02-19T12:24:01.946Z,100736.98
2019-02-19T12:26:32.739Z,100742.52
2019-02-19T12:29:03.431Z,100748.02
2019-02-19T12:31:34.535Z,100740.27
2019-02-19T12:34:05.738Z,100746.94
2019-02-19T12:36:44.416Z,100749.55
2019-02-19T12:39:21.580Z,100755.52
2019-02-19T12:41:54.992Z,100747.45
2019-02-19T12:44:25.902Z,100758.50
2019-02-19T12:46:57.275Z,100749.41
2019-02-19T12:49:31.809Z,100749.46
2019-02-19T12:52:05.881Z,100743.77
2019-02-19T12:54:44.233Z,100744.93
2019-02-19T12:57:26.071Z,100758.33
2019-02-19T13:00:06.465Z,100758.14
2019-02-19T13:02:45.163Z,100755.66
2019-02-19T13:05:24.714Z,100758.89
2019-02-19T13:07:57.514Z,100752.64
2019-02-19T13:10:29.040Z,100745.84
2019-02-19T13:13:02.477Z,100750.17
2019-02-19T13:15:33.556Z,100750.73
2019-02-19T13:18:07.873Z,100760.34
2019-02-19T13:20:40.352Z,100761.31
2019-02-19T13:23:12.785Z,100766.58
2019-02-19T13:25:44.033Z,100771.74
2019-02-19T13:28:15.612Z,100770.43
2019-02-19T13:30:47.138Z,100782.11
2019-02-19T13:33:19.960Z,100768.16
2019-02-19T13:35:51.678Z,100763.77
2019-02-19T13:38:23.259Z,100760.97
2019-02-19T13:40:55.039Z,100768.31
2019-02-19T13:43:26.442Z,100769.48
2019-02-19T13:45:57.280Z,100771.86
2019-02-19T13:48:30.400Z,100778.91
2019-02-19T13:51:02.201Z,100779.45
2019-02-19T13:53:34.746Z,100779.43
2019-02-19T13:56:05.571Z,100777.09
2019-02-19T13:58:39.934Z,100776.94
2019-02-19T14:01:11.093Z,100777.69
2019-02-19T14:03:42.691Z,100784.41
2019-02-19T14:06:13.433Z,100786.45
2019-02-19T14:08:44.306Z,100783.07
2019-02-19T14:11:15.736Z,100781.26
2019-02-19T14:13:48.853Z,100787.50
2019-02-19T14:16:21.530Z,100777.88
2019-02-19T14:18:54.446Z,100784.12
2019-02-19T14:21:26.968Z,100796.58
2019-02-19T14:24:03.798Z,100796.84
2019-02-19T14:26:36.472Z,100796.42
2019-02-19T14:29:08.915Z,100798.98
2019-02-19T14:31:42.310Z,100803.72
2019-02-19T14:34:15.420Z,100806.77
2019-02-19T14:36:48.226Z,100809.98
2019-02-19T14:39:20.545Z,100805.56
2019-02-19T14:41:52.790Z,100821.38
2019-02-19T14:44:26.453Z,100812.52
2019-02-19T14:46:59.872Z,100813.45
2019-02-19T14:49:37.316Z,100817.19
2019-02-19T14:52:07.656Z,100813.44
2019-02-19T14:54:40.522Z,100817.66
2019-02-19T14:57:13.157Z,100810.27
2019-02-19T14:59:45.901Z,100801.34
2019-02-19T15:02:18.839Z,100802.09
2019-02-19T15:04:51.369Z,100805.33
2019-02-19T15:07:23.989Z,100799.15
2019-02-19T15:09:56.225Z,100796.63
2019-02-19T15:12:29.339Z,100783.97
2019-02-19T15:15:03.184Z,100785.66
2019-02-19T15:17:35.695Z,100783.81
2019-02-19T15:20:16.257Z,100791.53
2019-02-19T15:22:49.209Z,100792.09
2019-02-19T15:25:21.663Z,100803.86
2019-02-19T15:27:55.230Z,100805.27
2019-02-19T15:30:27.351Z,100806.96
2019-02-19T15:32:59.696Z,100804.95
2019-02-19T15:35:31.962Z,100804.45
2019-02-19T15:38:04.364Z,100802.91
2019-02-19T15:40:37.492Z,100797.13
2019-02-19T15:43:09.716Z,100791.93
2019-02-19T15:45:41.818Z,100793.79
2019-02-19T15:48:13.955Z,100788.21
2019-02-19T15:50:46.243Z,100802.59
2019-02-19T15:53:18.403Z,100795.17
2019-02-19T15:55:50.963Z,100809.98
2019-02-19T15:58:23.100Z,100807.63
2019-02-19T16:00:57.444Z,100799.56
2019-02-19T16:03:38.453Z,100799.48
2019-02-19T16:06:15.164Z,100804.05
2019-02-19T16:08:49.563Z,100806.37
2019-02-19T16:11:27.476Z,100805.08
2019-02-19T16:14:01.484Z,100810.92
2019-02-19T16:16:33.706Z,100818.72
2019-02-19T16:19:06.883Z,100814.24
2019-02-19T16:21:47.515Z,100813.05
2019-02-19T16:24:22.963Z,100811.23
2019-02-19T16:26:56.389Z,100819.78
2019-02-19T16:29:28.446Z,100821.62
2019-02-19T16:32:00.383Z,100828.44
2019-02-19T16:34:32.390Z,100833.97
2019-02-19T16:37:04.317Z,100839.81
2019-02-19T16:39:36.356Z,100842.89
2019-02-19T16:42:08.308Z,100842.41
2019-02-19T16:44:38.348Z,100850.75
2019-02-19T16:47:10.335Z,100853.98
2019-02-19T16:49:42.307Z,100857.78
2019-02-19T16:52:14.302Z,100855.34
2019-02-19T16:54:46.263Z,100853.30
2019-02-19T16:57:18.408Z,100860.61
2019-02-19T16:59:50.462Z,100862.86
2019-02-19T17:02:23.143Z,100852.28
2019-02-19T17:04:56.329Z,100859.66
2019-02-19T17:07:30.350Z,100862.25
2019-02-19T17:10:02.796Z,100864.48
2019-02-19T17:12:35.109Z,100867.09
2019-02-19T17:15:09.285Z,100868.16
2019-02-19T17:17:41.500Z,100872.33
2019-02-19T17:20:26.240Z,100873.73
2019-02-19T17:22:45.185Z,100875.15
2019-02-19T17:25:18.181Z,100872.33
2019-02-19T17:27:50.350Z,100878.23
2019-02-19T17:30:22.325Z,100877.45
2019-02-19T17:32:54.577Z,100877.04
2019-02-19T17:35:26.489Z,100885.08
2019-02-19T17:37:58.513Z,100885.42
2019-02-19T17:40:30.489Z,100885.31
2019-02-19T17:43:02.834Z,100884.16
2019-02-19T17:45:35.150Z,100874.30
2019-02-19T17:48:08.534Z,100881.95
2019-02-19T17:50:45.788Z,100881.47
2019-02-19T17:53:21.625Z,100882.51
2019-02-19T17:55:55.062Z,100888.70
2019-02-19T17:58:27.346Z,100883.33
2019-02-19T18:01:01.671Z,100890.97
2019-02-19T18:03:39.441Z,100888.45
2019-02-19T18:06:17.307Z,100882.41
2019-02-19T18:08:57.189Z,100879.80
2019-02-19T18:11:32.107Z,100881.17
2019-02-19T18:14:04.509Z,100885.41
2019-02-19T18:16:37.064Z,100881.29
2019-02-19T18:19:09.110Z,100876.73
2019-02-19T18:21:53.224Z,100879.22
2019-02-19T18:24:26.218Z,100876.80
2019-02-19T18:26:56.701Z,100874.73
2019-02-19T18:29:27.575Z,100880.92
2019-02-19T18:31:58.433Z,100873.76
2019-02-19T18:34:29.425Z,100872.95
2019-02-19T18:37:00.027Z,100870.58
2019-02-19T18:39:31.569Z,100867.80
2019-02-19T18:42:02.282Z,100870.31
2019-02-19T18:44:38.517Z,100869.80
2019-02-19T18:47:09.353Z,100874.88
2019-02-19T18:49:42.321Z,100870.50
2019-02-19T18:52:13.393Z,100872.76
2019-02-19T18:54:43.657Z,100873.98
2019-02-19T18:57:13.945Z,100873.43
2019-02-19T18:59:44.337Z,100870.95
2019-02-19T19:02:14.693Z,100870.05
2019-02-19T19:04:44.973Z,100864.45
2019-02-19T19:07:15.334Z,100868.23
2019-02-19T19:09:45.677Z,100869.05
2019-02-19T19:12:15.970Z,100869.16
2019-02-19T19:14:46.388Z,100869.02
2019-02-19T19:17:16.806Z,100868.83
2019-02-19T19:19:47.138Z,100867.86
2019-02-19T19:22:17.642Z,100872.24
2019-02-19T19:24:48.090Z,100864.45
2019-02-19T19:27:18.522Z,100864.27
2019-02-19T19:29:50.511Z,100876.36
2019-02-19T19:32:22.010Z,100875.28
2019-02-19T19:34:53.249Z,100879.88
2019-02-19T19:37:27.807Z,100870.20
2019-02-19T19:40:00.035Z,100873.72
2019-02-19T19:42:30.948Z,100882.02
2019-02-19T19:45:02.259Z,100876.72
2019-02-19T19:47:33.501Z,100879.72
2019-02-19T19:50:05.570Z,100868.05
2019-02-19T19:52:36.517Z,100865.74
2019-02-19T19:55:10.353Z,100859.26
2019-02-19T19:57:41.791Z,100861.97
2019-02-19T20:00:14.709Z,100861.30
2019-02-19T20:02:46.113Z,100847.59
2019-02-19T20:05:20.738Z,100863.97
2019-02-19T20:07:52.091Z,100869.30
2019-02-19T20:10:22.552Z,100867.88
2019-02-19T20:12:52.998Z,100867.29
2019-02-19T20:15:23.630Z,100864.72
2019-02-19T20:18:10.029Z,100866.02
2019-02-19T20:21:06.343Z,100861.94
2019-02-19T20:23:50.074Z,100855.59
2019-02-19T20:26:22.292Z,100858.29
2019-02-19T20:28:54.424Z,100860.34
2019-02-19T20:31:25.498Z,100861.25
2019-02-19T20:33:56.301Z,100855.95
2019-02-19T20:36:29.019Z,100861.76
2019-02-19T20:38:59.883Z,100855.00
2019-02-19T20:41:30.756Z,100859.38
2019-02-19T20:44:02.459Z,100859.45
2019-02-19T20:46:34.418Z,100854.67
2019-02-19T20:49:05.587Z,100858.39
2019-02-19T20:51:36.767Z,100861.79
2019-02-19T20:54:07.794Z,100861.92
2019-02-19T21:00:27.473Z,100866.09
2019-02-19T21:03:06.323Z,100878.77
2019-02-19T21:05:37.351Z,100874.95
2019-02-19T21:08:08.110Z,100878.56
2019-02-19T21:10:39.128Z,100879.94
2019-02-19T21:13:09.991Z,100875.77
2019-02-19T21:15:40.641Z,100883.44
2019-02-19T21:18:23.825Z,100882.25
2019-02-19T21:20:56.372Z,100892.42
2019-02-19T21:27:00.765Z,100885.75
2019-02-19T21:29:32.293Z,100890.45
2019-02-19T21:32:04.313Z,100881.66
2019-02-19T21:34:35.848Z,100884.45
2019-02-19T21:37:07.463Z,100878.39
2019-02-19T21:39:38.541Z,100882.67
2019-02-19T21:42:09.145Z,100879.08
2019-02-19T21:44:40.158Z,100889.16
2019-02-19T21:47:11.545Z,100888.75
2019-02-19T21:49:43.131Z,100886.04
2019-02-19T21:52:14.991Z,100882.16
2019-02-19T21:54:46.210Z,100877.50
2019-02-19T21:57:17.807Z,100872.69
2019-02-19T21:59:49.041Z,100883.97
2019-02-19T22:02:20.857Z,100880.25
2019-02-19T22:04:52.203Z,100885.76
2019-02-19T22:07:23.548Z,100889.52
2019-02-19T22:09:54.913Z,100886.65
2019-02-19T22:12:26.042Z,100897.49
2019-02-19T22:14:56.896Z,100900.89
2019-02-19T22:17:28.147Z,100902.19
2019-02-19T22:20:03.169Z,100914.05
2019-02-19T22:22:33.082Z,100922.42
2019-02-19T22:25:03.910Z,100922.02
2019-02-19T22:27:36.233Z,100922.50
2019-02-19T22:30:08.837Z,100920.11
2019-02-19T22:32:40.249Z,100929.98
2019-02-19T22:35:11.284Z,100930.95
2019-02-19T22:37:42.174Z,100932.77
2019-02-19T22:40:13.409Z,100934.55
2019-02-19T22:42:44.056Z,100936.53
2019-02-19T22:45:15.434Z,100942.23
2019-02-19T22:47:53.177Z,100943.53
2019-02-19T22:50:19.068Z,100942.72
2019-02-19T22:52:50.503Z,100940.83
2019-02-19T22:55:22.962Z,100943.33
2019-02-19T22:57:54.256Z,100964.60
2019-02-19T23:00:29.941Z,100952.63
2019-02-19T23:03:02.427Z,100949.11
2019-02-19T23:05:33.426Z,100947.86
2019-02-19T23:08:04.463Z,100948.95
2019-02-19T23:10:35.244Z,100950.06
2019-02-19T23:13:06.338Z,100938.88
2019-02-19T23:15:37.031Z,100939.87
2019-02-19T23:18:07.682Z,100947.23
2019-02-19T23:20:38.470Z,100956.84
2019-02-19T23:23:10.391Z,100963.70
2019-02-19T23:25:41.759Z,100972.67
2019-02-19T23:28:12.998Z,100960.45
2019-02-19T23:30:44.838Z,100957.24
2019-02-19T23:33:15.792Z,100963.80
2019-02-19T23:35:48.341Z,100973.75
2019-02-19T23:38:19.287Z,100972.14
2019-02-19T23:40:50.618Z,100972.27
2019-02-19T23:43:21.882Z,100970.30
2019-02-19T23:45:52.916Z,100970.88
2019-02-19T23:48:24.282Z,100969.80
2019-02-19T23:50:55.165Z,100963.34
2019-02-19T23:53:26.560Z,100971.01
2019-02-19T23:55:57.215Z,100974.30
2019-02-19T23:58:28.685Z,100974.91
